Davenport, Washington
Current Conditions -  °F | °C
As of 5:58 AM on Monday 22 Dec 2014 (Local Time) from KSKA Reporting Station
Clear Clear  
Wind Chill: 27°   Ceiling: Unl
Heat Index: 33°   Visibility: 10mi
Dew Point: 29°   Wind: 7mph
Humidity: 87%   Direction: 230°SW
Pressure: 30.01"   Gusts: NA
Location:  47.65°N, 118.15°W
Report Text: KSKA 221358Z AUTO 23006KT 10SM CLR 01/M01 A3001 RMK AO2 UPB04E18UPB19E21 SLP181 P0000 T00051015 $
Loading
Personal Weather Stations






























Interactive Weather Map New forecast layout! Learn more

10-Day Weather Forecast

Advertisements
Track Severe Weather on mobile